TimeMST,TemperatureF,Dew PointF,Humidity,Sea Level PressureIn,VisibilityMPH,Wind Direction,Wind SpeedMPH,Gust SpeedMPH,PrecipitationIn,Events,Conditions,WindDirDegrees,DateUTC
12:53 AM,17.1,12.9,84,30.14,10.0,WSW,6.9,-,N/A,,Clear,240,2013-01-25 07:53:00
1:53 AM,12.9,10.0,88,30.15,10.0,Calm,Calm,-,N/A,,Clear,0,2013-01-25 08:53:00
2:53 AM,18.0,15.1,88,30.13,10.0,Calm,Calm,-,N/A,,Clear,0,2013-01-25 09:53:00
3:53 AM,12.0,8.1,84,30.13,10.0,Variable,4.6,-,N/A,,Clear,0,2013-01-25 10:53:00
4:53 AM,10.9,7.0,84,30.13,10.0,SE,8.1,-,N/A,,Clear,130,2013-01-25 11:53:00
5:53 AM,15.1,12.0,88,30.12,10.0,East,4.6,-,N/A,,Clear,100,2013-01-25 12:53:00
6:53 AM,12.0,8.1,84,30.12,10.0,ESE,8.1,-,N/A,,Clear,120,2013-01-25 13:53:00
7:53 AM,12.9,9.0,84,30.12,10.0,ESE,11.5,-,N/A,,Clear,120,2013-01-25 14:53:00
8:53 AM,15.1,10.9,84,30.12,10.0,ESE,12.7,-,N/A,,Clear,110,2013-01-25 15:53:00
9:53 AM,16.0,12.0,84,30.13,10.0,ESE,16.1,-,N/A,,Clear,110,2013-01-25 16:53:00
10:53 AM,17.1,12.9,84,30.12,10.0,ESE,17.3,-,N/A,,Clear,110,2013-01-25 17:53:00
11:53 AM,19.0,14.0,81,30.10,10.0,ESE,13.8,-,N/A,,Clear,110,2013-01-25 18:53:00
12:53 PM,19.9,15.1,81,30.08,10.0,East,15.0,-,N/A,,Clear,100,2013-01-25 19:53:00
1:53 PM,21.0,16.0,81,30.05,10.0,ESE,13.8,-,N/A,,Clear,120,2013-01-25 20:53:00
2:53 PM,21.0,16.0,81,30.04,10.0,ESE,9.2,-,N/A,,Clear,110,2013-01-25 21:53:00
3:53 PM,21.0,16.0,81,30.04,10.0,ESE,9.2,-,N/A,,Clear,120,2013-01-25 22:53:00
4:53 PM,19.9,16.0,85,30.03,10.0,ESE,6.9,-,N/A,,Clear,110,2013-01-25 23:53:00
5:53 PM,19.0,15.1,85,30.02,10.0,ESE,9.2,-,N/A,,Clear,120,2013-01-26 00:53:00
6:53 PM,18.0,14.0,84,30.01,10.0,ESE,9.2,-,N/A,,Clear,120,2013-01-26 01:53:00
7:53 PM,17.1,14.0,88,30.00,10.0,SE,4.6,-,N/A,,Clear,130,2013-01-26 02:53:00
8:53 PM,17.1,14.0,88,30.00,10.0,Calm,Calm,-,N/A,,Clear,0,2013-01-26 03:53:00
9:53 PM,16.0,12.9,88,29.99,9.0,SE,3.5,-,N/A,,Clear,130,2013-01-26 04:53:00
10:53 PM,15.1,12.0,88,29.98,9.0,East,6.9,-,N/A,,Clear,90,2013-01-26 05:53:00
11:53 PM,17.1,12.9,84,29.98,8.0,Calm,Calm,-,N/A,,Clear,0,2013-01-26 06:53:00